createdAt,value
2018-11-04T00:00:57.162Z,57.2
2018-11-04T00:17:41.296Z,57.2
2018-11-04T00:34:25.979Z,57.2
2018-11-04T00:51:10.577Z,57.6
2018-11-04T01:07:55.254Z,57.6
2018-11-04T01:24:39.429Z,57.6
2018-11-04T01:41:23.844Z,57.6
2018-11-04T01:58:08.233Z,57.2
2018-11-04T02:14:52.450Z,57.2
2018-11-04T02:31:36.669Z,57.2
2018-11-04T02:48:20.934Z,57.2
2018-11-04T03:05:05.159Z,57.2
2018-11-04T03:21:49.902Z,57.2
2018-11-04T03:38:33.432Z,57.2
2018-11-04T03:55:18.248Z,57.2
2018-11-04T04:12:01.545Z,57.2
2018-11-04T04:28:45.531Z,57.2
2018-11-04T04:45:29.549Z,57.2
2018-11-04T05:02:13.486Z,57.2
2018-11-04T05:18:57.457Z,57.2
2018-11-04T05:35:41.372Z,57.2
2018-11-04T05:52:25.150Z,57.2
2018-11-04T06:09:09.045Z,57.2
2018-11-04T06:25:53.407Z,57.2
2018-11-04T06:42:36.500Z,57.2
2018-11-04T06:59:20.375Z,57.2
2018-11-04T07:16:04.335Z,56.8
2018-11-04T07:32:48.156Z,56.8
2018-11-04T07:49:32.148Z,56.8
2018-11-04T08:06:16.253Z,56.8
2018-11-04T08:23:00.495Z,56.4
2018-11-04T08:39:44.873Z,56.4
2018-11-04T08:56:28.985Z,56.4
2018-11-04T09:13:13.269Z,56.0
2018-11-04T09:29:57.622Z,56.0
2018-11-04T09:46:42.023Z,56.0
2018-11-04T10:03:26.774Z,56.0
2018-11-04T10:20:11.218Z,55.6
2018-11-04T10:36:55.590Z,55.6
2018-11-04T10:53:40.265Z,55.6
2018-11-04T11:10:25.059Z,55.6
2018-11-04T11:27:10.407Z,55.2
2018-11-04T11:43:55.802Z,55.2
2018-11-04T12:00:41.007Z,55.2
2018-11-04T12:17:26.313Z,55.2
2018-11-04T12:34:11.913Z,55.2
2018-11-04T12:50:57.068Z,55.6
2018-11-04T13:07:42.588Z,55.6
2018-11-04T13:24:28.173Z,55.6
2018-11-04T13:41:13.565Z,55.2
2018-11-04T13:57:59.061Z,55.2
2018-11-04T14:14:44.604Z,55.6
2018-11-04T14:31:30.815Z,55.2
2018-11-04T14:48:15.960Z,55.2
2018-11-04T15:05:01.840Z,55.2
2018-11-04T15:21:47.692Z,54.8
2018-11-04T15:38:33.922Z,54.8
2018-11-04T15:55:20.011Z,54.8
2018-11-04T16:12:06.068Z,54.8
2018-11-04T16:28:52.476Z,54.8
2018-11-04T16:45:38.480Z,54.8
2018-11-04T17:02:24.830Z,54.8
2018-11-04T17:19:10.852Z,54.8
2018-11-04T17:35:56.150Z,55.2
2018-11-04T17:52:41.459Z,55.2
2018-11-04T18:09:27.004Z,55.2
2018-11-04T18:26:12.466Z,55.6
2018-11-04T18:42:58.121Z,55.6
2018-11-04T18:59:43.738Z,56.0
2018-11-04T19:16:29.791Z,56.0
2018-11-04T19:33:15.604Z,56.0
2018-11-04T19:50:01.447Z,56.4
2018-11-04T20:06:47.080Z,56.8
2018-11-04T20:23:32.729Z,56.8
2018-11-04T20:40:18.486Z,56.8
2018-11-04T20:57:03.982Z,57.2
2018-11-04T21:13:49.484Z,57.2
2018-11-04T21:30:35.139Z,58.0
2018-11-04T21:47:20.603Z,58.4
2018-11-04T22:04:06.278Z,58.4
2018-11-04T22:20:51.773Z,58.8
2018-11-04T22:37:37.487Z,58.8
2018-11-04T22:54:23.042Z,58.8
2018-11-04T23:11:08.837Z,58.4
2018-11-04T23:27:54.574Z,58.8
2018-11-04T23:44:40.029Z,58.8
